Time;durP1;ratioP1;P1;durP2;ratioP2;P2;SDS_P1;SDS_P2;PMS_P1;PMS_P2;Temp;Humidity;BMP_temperature;BMP_pressure;BME280_temperature;BME280_humidity;BME280_pressure;Samples;Min_cycle;Max_cycle;Signal;HPM_P1;HPM_P2
2020/12/11 03:02:00;;;;;;;27.63;21.20;;;2.60;99.90;;;;;;5914094;23;20478;-80
2020/12/11 03:04:26;;;;;;;23.17;21.00;;;2.60;99.90;;;;;;5006639;28;20437;-83
2020/12/11 03:06:52;;;;;;;26.63;24.07;;;2.60;99.90;;;;;;5001294;28;20453;-81
2020/12/11 03:09:19;;;;;;;27.53;24.10;;;2.60;99.90;;;;;;4991286;28;20473;-79
2020/12/11 03:11:45;;;;;;;23.27;20.83;;;2.50;99.90;;;;;;4984853;28;20462;-82
2020/12/11 03:14:11;;;;;;;26.07;22.57;;;2.50;99.90;;;;;;4979604;28;21183;-80
2020/12/11 03:16:37;;;;;;;26.33;23.47;;;2.50;99.90;;;;;;4979864;28;20454;-82
2020/12/11 03:19:04;;;;;;;25.53;22.90;;;2.50;99.90;;;;;;4981679;28;20491;-81
2020/12/11 03:21:30;;;;;;;28.57;25.50;;;2.50;99.90;;;;;;4979681;28;20501;-80
2020/12/11 03:23:56;;;;;;;25.57;23.07;;;2.60;99.90;;;;;;4981446;28;20450;-80
2020/12/11 03:26:23;;;;;;;26.40;23.83;;;2.60;99.90;;;;;;4980412;28;20447;-78
2020/12/11 03:28:51;;;;;;;26.27;23.50;;;2.60;99.90;;;;;;4994622;28;20947;-79
2020/12/11 03:31:17;;;;;;;26.23;23.87;;;2.70;99.90;;;;;;4992673;28;20530;-80
2020/12/11 03:33:43;;;;;;;26.33;23.53;;;2.70;99.90;;;;;;4980830;28;20470;-83
2020/12/11 03:36:11;;;;;;;25.93;23.27;;;2.70;99.90;;;;;;4981253;28;20497;-83
2020/12/11 03:38:37;;;;;;;24.93;22.50;;;2.70;99.90;;;;;;4981621;28;20485;-81
2020/12/11 03:41:03;;;;;;;25.63;23.13;;;2.60;99.90;;;;;;4980050;28;20458;-81
2020/12/11 03:43:29;;;;;;;27.60;25.00;;;2.50;99.90;;;;;;4981344;28;20983;-81
2020/12/11 03:45:55;;;;;;;25.70;23.00;;;2.50;99.90;;;;;;4979282;28;20442;-82
2020/12/11 03:48:21;;;;;;;25.80;23.27;;;2.50;99.90;;;;;;4980172;28;20501;-81
2020/12/11 03:50:47;;;;;;;25.90;23.30;;;2.40;99.90;;;;;;4981244;28;20454;-78
2020/12/11 03:53:14;;;;;;;24.80;22.50;;;2.30;99.90;;;;;;4979114;28;20451;-80
2020/12/11 03:55:41;;;;;;;28.63;24.80;;;2.30;99.90;;;;;;4979175;28;20497;-79
2020/12/11 03:58:07;;;;;;;28.17;25.37;;;2.10;99.90;;;;;;4980782;28;20446;-80
2020/12/11 04:00:33;;;;;;;26.40;23.87;;;2.10;99.90;;;;;;4978913;28;20545;-78
2020/12/11 04:02:59;;;;;;;28.37;25.50;;;2.10;99.90;;;;;;4979812;28;20471;-82
2020/12/11 04:05:25;;;;;;;28.20;25.50;;;2.00;99.90;;;;;;4980824;28;20446;-75
2020/12/11 04:07:51;;;;;;;30.17;25.90;;;1.90;99.90;;;;;;4978974;28;20453;-80
2020/12/11 04:10:18;;;;;;;28.13;25.10;;;1.90;99.90;;;;;;4981253;28;20480;-82
2020/12/11 04:12:44;;;;;;;27.83;24.87;;;1.90;99.90;;;;;;4979259;28;20446;-80
2020/12/11 04:15:11;;;;;;;28.43;25.50;;;1.80;99.90;;;;;;4979058;28;20839;-81
2020/12/11 04:17:37;;;;;;;30.23;27.00;;;1.80;99.90;;;;;;4981027;28;20932;-81
2020/12/11 04:20:03;;;;;;;29.37;26.47;;;1.80;99.90;;;;;;4979462;28;20833;-81
2020/12/11 04:22:29;;;;;;;27.60;24.60;;;1.80;99.90;;;;;;4979299;28;20473;-80
2020/12/11 04:24:55;;;;;;;29.47;26.40;;;1.80;99.90;;;;;;4984847;28;20450;-82
2020/12/11 04:27:22;;;;;;;28.60;25.83;;;1.80;99.90;;;;;;4983451;28;20447;-81
2020/12/11 04:29:48;;;;;;;27.77;24.83;;;1.70;99.90;;;;;;4982916;28;20447;-81
2020/12/11 04:32:15;;;;;;;31.20;27.50;;;1.70;99.90;;;;;;4984227;28;20446;-81
2020/12/11 04:34:41;;;;;;;30.27;26.50;;;1.70;99.90;;;;;;4982806;28;20451;-80
2020/12/11 04:37:07;;;;;;;26.83;23.37;;;1.70;99.90;;;;;;4984317;28;20443;-82
2020/12/11 04:39:33;;;;;;;30.97;26.90;;;1.80;99.90;;;;;;4982655;28;20486;-82
2020/12/11 04:42:02;;;;;;;28.77;25.87;;;1.80;99.90;;;;;;4982697;28;20449;-82
2020/12/11 04:44:30;;;;;;;29.50;26.30;;;1.80;99.90;;;;;;4984592;28;20488;-84
2020/12/11 04:47:03;;;;;;;32.00;25.77;;;1.90;99.90;;;;;;4984678;28;21154;-85
2020/12/11 04:49:30;;;;;;;31.07;27.07;;;1.80;99.90;;;;;;4984899;28;20443;-85
2020/12/11 04:52:02;;;;;;;29.50;26.30;;;1.80;99.90;;;;;;4982953;28;20806;-85
2020/12/11 04:54:35;;;;;;;29.20;26.13;;;1.80;99.90;;;;;;4983365;28;20469;-86
2020/12/11 04:57:04;;;;;;;28.07;24.77;;;1.80;99.90;;;;;;4982838;28;20517;-84
2020/12/11 04:59:31;;;;;;;27.93;25.23;;;1.80;99.90;;;;;;4984313;28;20514;-85
2020/12/11 05:02:00;;;;;;;28.80;25.77;;;1.70;99.90;;;;;;4982701;28;20911;-84
2020/12/11 05:04:27;;;;;;;33.17;25.47;;;1.70;99.90;;;;;;4982432;28;20446;-84
2020/12/11 05:06:53;;;;;;;28.73;25.57;;;1.60;99.90;;;;;;4982601;28;20466;-84
2020/12/11 05:09:20;;;;;;;28.37;25.33;;;1.60;99.90;;;;;;4984371;28;20434;-84
2020/12/11 05:11:48;;;;;;;31.60;27.80;;;1.50;99.90;;;;;;4982144;28;20529;-84
2020/12/11 05:14:22;;;;;;;32.50;27.70;;;1.40;99.90;;;;;;4982628;28;20840;-85
2020/12/11 05:17:00;;;;;;;36.27;28.83;;;1.40;99.90;;;;;;4983246;28;20439;-85
2020/12/11 05:19:27;;;;;;;32.03;27.67;;;1.40;99.90;;;;;;4982591;28;20482;-84
2020/12/11 05:21:54;;;;;;;33.47;26.40;;;1.40;99.90;;;;;;4983844;28;20447;-86
2020/12/11 05:24:20;;;;;;;32.10;25.43;;;1.40;99.90;;;;;;4984809;28;20447;-86
2020/12/11 05:26:46;;;;;;;33.07;25.57;;;1.40;99.90;;;;;;4983081;28;20517;-87
2020/12/11 05:29:13;;;;;;;32.10;27.63;;;1.40;99.90;;;;;;4985270;28;20454;-89
2020/12/11 05:31:39;;;;;;;35.37;28.80;;;1.40;99.90;;;;;;4984537;28;20454;-84
2020/12/11 05:34:11;;;;;;;34.30;28.33;;;1.40;99.90;;;;;;4985182;28;20893;-85
2020/12/11 05:36:43;;;;;;;33.13;28.17;;;1.40;99.90;;;;;;4992951;28;20447;-80
2020/12/11 05:39:09;;;;;;;35.00;26.70;;;1.30;99.90;;;;;;4995045;28;20483;-83
2020/12/11 05:41:37;;;;;;;38.23;28.90;;;1.30;99.90;;;;;;4990134;28;20458;-83
2020/12/11 05:44:21;;;;;;;36.53;28.90;;;1.30;99.90;;;;;;4983030;28;20447;-82
2020/12/11 05:46:47;;;;;;;35.70;30.90;;;1.30;99.90;;;;;;4992738;28;20439;-78
2020/12/11 05:49:29;;;;;;;34.30;27.93;;;1.20;99.90;;;;;;4984693;28;20447;-79
2020/12/11 05:52:11;;;;;;;35.77;29.30;;;1.20;99.90;;;;;;4982495;28;20451;-79
2020/12/11 05:54:53;;;;;;;33.50;27.80;;;1.20;99.90;;;;;;4980348;28;20482;-79
2020/12/11 05:57:21;;;;;;;36.50;28.07;;;1.20;99.90;;;;;;4980746;28;20451;-78
2020/12/11 05:59:47;;;;;;;30.20;26.00;;;1.20;99.90;;;;;;4980742;28;20487;-79
2020/12/11 06:02:17;;;;;;;34.47;25.93;;;1.10;99.90;;;;;;4981978;28;20475;-79
2020/12/11 06:04:46;;;;;;;34.40;26.40;;;1.20;99.90;;;;;;4980658;28;20960;-79
2020/12/11 06:07:13;;;;;;;35.53;29.10;;;1.20;99.90;;;;;;4980910;28;20784;-79
2020/12/11 06:09:41;;;;;;;29.20;25.27;;;1.20;99.90;;;;;;4982530;28;20453;-82
2020/12/11 06:12:08;;;;;;;29.97;25.07;;;1.20;99.90;;;;;;4980877;28;20820;-82
2020/12/11 06:14:58;;;;;;;30.00;25.00;;;1.20;99.90;;;;;;4980533;28;20937;-82
2020/12/11 06:17:26;;;;;;;27.43;24.53;;;1.20;99.90;;;;;;4982470;28;20803;-82
2020/12/11 06:19:56;;;;;;;31.20;24.37;;;1.30;99.90;;;;;;4980737;28;20490;-82
2020/12/11 06:22:22;;;;;;;27.60;24.70;;;1.30;99.90;;;;;;4981143;28;20439;-79
2020/12/11 06:24:48;;;;;;;27.40;23.93;;;1.30;99.90;;;;;;4982599;28;20451;-82
2020/12/11 06:27:15;;;;;;;29.03;23.20;;;1.30;99.90;;;;;;4980642;28;20454;-82
2020/12/11 06:29:41;;;;;;;22.47;20.10;;;1.30;99.90;;;;;;4980691;28;20988;-84
2020/12/11 06:32:07;;;;;;;25.53;20.07;;;1.30;99.90;;;;;;4983335;28;20451;-84
2020/12/11 06:34:34;;;;;;;24.87;22.30;;;1.40;99.90;;;;;;4981562;28;20454;-82
2020/12/11 06:37:01;;;;;;;28.63;23.60;;;1.40;99.90;;;;;;4982891;28;20450;-82
2020/12/11 06:39:41;;;;;;;31.70;26.70;;;1.40;99.90;;;;;;4982506;28;20843;-82
2020/12/11 06:42:08;;;;;;;24.70;21.07;;;1.40;99.90;;;;;;4982081;28;20989;-83
2020/12/11 06:44:35;;;;;;;25.13;22.43;;;1.40;99.90;;;;;;4981881;28;20991;-82
2020/12/11 06:47:09;;;;;;;21.63;19.70;;;1.40;99.90;;;;;;4980078;28;20850;-81
2020/12/11 06:49:36;;;;;;;19.83;17.80;;;1.40;99.90;;;;;;4980291;28;20449;-79
2020/12/11 06:52:11;;;;;;;22.80;20.27;;;1.40;99.90;;;;;;4981676;28;20451;-81
2020/12/11 06:54:51;;;;;;;20.20;18.20;;;1.50;99.90;;;;;;4981661;28;20447;-81
2020/12/11 06:57:43;;;;;;;22.07;19.97;;;1.50;99.90;;;;;;4980160;28;20513;-76
2020/12/11 07:00:30;;;;;;;23.43;21.03;;;1.50;99.90;;;;;;4980790;28;20490;-76
2020/12/11 07:03:19;;;;;;;20.80;18.60;;;1.50;99.90;;;;;;5005978;23;20592;-75
2020/12/11 07:05:45;;;;;;;25.77;22.37;;;1.50;99.90;;;;;;4994069;28;20449;-84
2020/12/11 07:08:13;;;;;;;23.03;20.53;;;1.50;99.90;;;;;;5009779;28;20442;-91
2020/12/11 07:10:41;;;;;;;29.73;25.20;;;1.50;99.90;;;;;;5017655;28;20501;-86
2020/12/11 07:13:12;;;;;;;28.33;22.90;;;1.60;99.90;;;;;;5008322;28;20521;-89
2020/12/11 07:15:42;;;;;;;28.97;23.70;;;1.60;99.90;;;;;;5018657;28;20544;-91
2020/12/11 07:18:34;;;;;;;29.50;26.03;;;1.60;99.90;;;;;;5018987;28;20452;-91
2020/12/11 07:21:02;;;;;;;28.40;25.47;;;1.50;99.90;;;;;;5017779;28;20446;-90
2020/12/11 07:23:48;;;;;;;31.60;26.90;;;1.40;99.90;;;;;;5018231;28;20623;-92
2020/12/11 08:13:42;;;;;;;;;;;;;;;;;;;;;
2020/12/11 08:17:00;;;;;;;;;;;;;;;;;;;;;
2020/12/11 08:23:47;;;;;;;29.60;25.70;;;2.00;99.90;;;;;;4780498;30;20435;-87
2020/12/11 08:26:34;;;;;;;35.60;28.87;;;2.20;99.90;;;;;;4752555;29;20462;-87
2020/12/11 08:32:47;;;;;;;34.57;27.10;;;2.40;99.90;;;;;;4810837;29;20501;-87
2020/12/11 08:35:51;;;;;;;30.60;27.13;;;2.30;99.90;;;;;;4908629;29;20541;-87
2020/12/11 08:42:43;;;;;;;;;;;;;;;;;;;;;
2020/12/11 09:02:37;;;;;;;;;;;;;;;;;;;;;
2020/12/11 09:05:25;;;;;;;24.83;21.83;;;4.40;99.90;;;;;;4933994;28;20460;-87
2020/12/11 09:08:33;;;;;;;24.87;20.40;;;4.40;99.90;;;;;;4998363;28;20447;-87
2020/12/11 09:11:35;;;;;;;25.47;22.90;;;3.50;99.90;;;;;;4881968;29;20617;-88
2020/12/11 09:14:01;;;;;;;31.67;27.37;;;3.20;99.90;;;;;;4964953;28;20549;-87
2020/12/11 09:16:27;;;;;;;25.77;22.50;;;3.00;99.90;;;;;;4993873;28;20443;-87
2020/12/11 09:18:54;;;;;;;27.67;23.77;;;3.00;99.90;;;;;;4993329;28;20455;-86
2020/12/11 09:21:26;;;;;;;26.10;23.47;;;3.00;99.90;;;;;;5001389;28;20457;-89
2020/12/11 09:23:55;;;;;;;25.83;22.90;;;2.90;99.90;;;;;;4998753;28;20453;-90
2020/12/11 09:26:25;;;;;;;26.17;22.00;;;2.70;99.90;;;;;;4997340;28;20457;-87
2020/12/11 09:29:05;;;;;;;27.70;23.33;;;2.60;99.90;;;;;;4999191;28;20453;-91
2020/12/11 09:31:32;;;;;;;25.10;20.27;;;2.60;99.90;;;;;;5003880;28;20453;-88
2020/12/11 09:33:59;;;;;;;24.53;21.93;;;2.70;99.90;;;;;;4999761;28;20479;-87
2020/12/11 09:36:27;;;;;;;32.83;24.60;;;2.70;99.90;;;;;;5003758;28;20837;-90
2020/12/11 09:38:54;;;;;;;26.67;23.77;;;2.90;99.90;;;;;;5000200;28;20502;-86
2020/12/11 09:41:29;;;;;;;28.17;23.50;;;3.10;99.90;;;;;;5000732;28;20478;-90
2020/12/11 09:44:27;;;;;;;28.23;22.60;;;3.20;99.90;;;;;;5001056;28;20456;-90
2020/12/11 09:47:06;;;;;;;28.30;24.20;;;3.20;99.90;;;;;;4998714;28;20461;-89
2020/12/11 09:49:36;;;;;;;31.50;25.63;;;3.30;99.90;;;;;;5004567;28;20443;-88
2020/12/11 09:52:21;;;;;;;28.67;23.07;;;3.40;99.90;;;;;;5001344;28;20533;-89
2020/12/11 09:54:49;;;;;;;25.00;22.10;;;3.40;99.90;;;;;;5006720;28;20447;-89
2020/12/11 09:57:17;;;;;;;26.33;22.90;;;3.60;99.90;;;;;;5003830;28;20454;-89
2020/12/11 09:59:54;;;;;;;26.67;23.40;;;3.60;99.90;;;;;;5001743;28;20494;-90
2020/12/11 10:02:31;;;;;;;25.57;22.83;;;3.80;99.90;;;;;;4996939;28;20490;-87
2020/12/11 10:04:58;;;;;;;24.37;21.93;;;3.80;99.90;;;;;;4988413;28;20455;-88
2020/12/11 10:07:26;;;;;;;25.57;22.93;;;3.60;99.90;;;;;;4992380;28;20482;-90
2020/12/11 10:09:52;;;;;;;23.40;21.00;;;3.60;99.90;;;;;;4994986;28;20451;-89
2020/12/11 10:12:22;;;;;;;27.70;22.80;;;3.50;99.90;;;;;;4989712;28;20459;-89
2020/12/11 10:14:53;;;;;;;23.90;21.40;;;3.70;99.90;;;;;;4988093;28;20451;-87
2020/12/11 10:17:20;;;;;;;24.83;20.83;;;3.80;99.90;;;;;;4984585;28;20455;-89
2020/12/11 10:19:48;;;;;;;24.43;21.97;;;3.70;99.90;;;;;;4986428;28;20475;-88
2020/12/11 10:22:14;;;;;;;25.90;21.90;;;3.80;99.90;;;;;;4990040;28;20482;-89
2020/12/11 10:24:42;;;;;;;23.63;20.90;;;3.90;99.90;;;;;;4991391;28;20435;-90
2020/12/11 10:27:08;;;;;;;22.83;20.43;;;3.90;99.90;;;;;;4988681;28;20461;-88
2020/12/11 10:29:34;;;;;;;23.93;21.13;;;4.00;99.90;;;;;;4984547;28;20449;-87
2020/12/11 10:32:00;;;;;;;20.40;18.33;;;4.00;99.90;;;;;;4986340;28;20459;-87
2020/12/11 10:34:27;;;;;;;24.60;20.60;;;4.00;99.90;;;;;;4988241;28;20454;-88
2020/12/11 10:36:53;;;;;;;23.77;21.20;;;4.20;99.90;;;;;;4985056;28;20451;-87
2020/12/11 10:39:20;;;;;;;24.27;21.67;;;4.20;99.90;;;;;;4987886;28;20478;-87
2020/12/11 10:41:47;;;;;;;20.87;18.67;;;4.20;99.90;;;;;;4983903;28;20458;-86
2020/12/11 10:44:13;;;;;;;27.17;21.63;;;4.10;99.90;;;;;;4982896;28;20453;-87
2020/12/11 10:46:40;;;;;;;22.27;20.00;;;4.20;99.90;;;;;;4981664;28;20458;-88
2020/12/11 10:49:07;;;;;;;21.07;18.80;;;4.10;99.90;;;;;;4982790;28;20454;-87
2020/12/11 10:51:33;;;;;;;23.13;19.50;;;4.20;99.90;;;;;;4984898;28;20933;-85
2020/12/11 10:54:00;;;;;;;23.47;19.43;;;4.00;99.90;;;;;;4994097;28;20443;-86
2020/12/11 10:56:26;;;;;;;24.67;21.17;;;4.00;99.90;;;;;;4989873;28;20447;-86
2020/12/11 10:58:54;;;;;;;25.17;21.17;;;4.20;99.90;;;;;;4993721;28;20461;-87
2020/12/11 11:01:20;;;;;;;23.30;20.90;;;4.20;99.90;;;;;;4986355;28;20490;-86
2020/12/11 11:03:46;;;;;;;22.50;20.30;;;4.00;99.90;;;;;;4988276;28;20968;-87
2020/12/11 11:06:52;;;;;;;25.03;22.50;;;4.00;99.90;;;;;;5000772;28;20929;-88
2020/12/11 11:09:31;;;;;;;22.90;20.60;;;4.10;99.90;;;;;;5006712;28;20454;-89
2020/12/11 11:12:06;;;;;;;23.67;21.40;;;4.20;99.90;;;;;;5002830;28;20565;-88
2020/12/11 11:14:58;;;;;;;23.10;20.53;;;4.40;99.90;;;;;;4999667;28;20526;-87
2020/12/11 11:20:17;;;;;;;22.97;20.57;;;4.30;99.90;;;;;;5002695;28;20501;-87
2020/12/11 11:22:52;;;;;;;21.97;19.63;;;4.20;99.90;;;;;;5000109;28;20533;-85
2020/12/11 11:28:24;;;;;;;24.47;21.60;;;4.40;99.90;;;;;;4998488;28;20506;-88
2020/12/11 11:30:51;;;;;;;21.50;19.33;;;4.40;99.90;;;;;;5005255;28;20478;-88
2020/12/11 11:33:20;;;;;;;24.23;21.80;;;4.40;99.90;;;;;;5002538;28;20465;-85
2020/12/11 11:35:49;;;;;;;21.73;19.53;;;4.40;99.90;;;;;;4998521;28;20451;-86
2020/12/11 11:38:16;;;;;;;20.53;18.57;;;4.40;99.90;;;;;;4997976;28;20549;-87
2020/12/11 11:40:42;;;;;;;26.43;21.97;;;4.30;99.90;;;;;;4996559;28;20487;-87
2020/12/11 11:43:09;;;;;;;22.77;20.37;;;4.30;99.90;;;;;;4991315;28;20474;-87
2020/12/11 11:45:42;;;;;;;20.50;18.40;;;4.30;99.90;;;;;;4990542;28;20835;-87
2020/12/11 11:48:11;;;;;;;25.10;20.90;;;4.40;99.90;;;;;;4993735;28;20454;-86
2020/12/11 11:50:47;;;;;;;21.40;19.30;;;4.60;99.90;;;;;;5000626;28;20481;-87
2020/12/11 11:53:19;;;;;;;22.30;19.00;;;4.70;99.90;;;;;;4998130;28;20505;-87
2020/12/11 11:55:47;;;;;;;21.17;19.07;;;4.70;99.90;;;;;;4999130;28;20455;-87
2020/12/11 11:58:13;;;;;;;21.60;19.57;;;4.60;99.90;;;;;;4991921;28;20458;-86
2020/12/11 12:00:40;;;;;;;23.83;21.43;;;4.40;99.90;;;;;;4995614;28;20479;-86
2020/12/11 12:03:06;;;;;;;21.87;19.57;;;4.50;99.90;;;;;;4991173;28;20485;-85
2020/12/11 12:05:34;;;;;;;23.77;20.97;;;4.70;99.90;;;;;;4988396;28;20443;-86
2020/12/11 12:08:00;;;;;;;22.90;20.40;;;4.60;99.90;;;;;;4996199;28;20450;-87
2020/12/11 12:10:26;;;;;;;23.33;20.80;;;4.60;99.90;;;;;;4991335;28;20453;-87
2020/12/11 12:12:53;;;;;;;22.90;20.40;;;4.50;99.90;;;;;;4993298;28;20451;-88
2020/12/11 12:15:21;;;;;;;25.00;22.60;;;4.60;99.90;;;;;;4990839;28;20435;-89
2020/12/11 12:17:54;;;;;;;23.03;20.57;;;4.60;99.90;;;;;;4985433;28;20450;-87
2020/12/11 12:20:25;;;;;;;21.97;19.60;;;4.40;99.90;;;;;;4986233;28;20482;-86
2020/12/11 12:28:43;;;;;;;27.67;23.27;;;4.60;99.90;;;;;;4991835;28;20952;-89
2020/12/11 12:31:13;;;;;;;25.20;22.43;;;4.80;99.90;;;;;;4987162;28;20915;-89
2020/12/11 12:39:30;;;;;;;23.37;20.00;;;5.10;99.90;;;;;;4994618;28;20422;-89
2020/12/11 12:44:44;;;;;;;24.67;22.07;;;4.70;99.90;;;;;;4986130;28;20425;-87
2020/12/11 12:47:11;;;;;;;27.90;24.00;;;4.80;99.90;;;;;;4988782;28;20451;-87
2020/12/11 12:49:40;;;;;;;29.70;24.33;;;5.00;99.90;;;;;;4989380;28;20574;-87
2020/12/11 12:52:14;;;;;;;28.53;22.57;;;5.00;99.90;;;;;;4992225;28;20474;-88
2020/12/11 13:13:35;;;;;;;25.83;22.57;;;4.80;99.90;;;;;;4902745;29;21016;-77
2020/12/11 13:16:01;;;;;;;23.50;19.87;;;4.60;99.90;;;;;;4977873;28;20450;-80
2020/12/11 13:18:27;;;;;;;25.93;22.27;;;4.70;99.90;;;;;;4994144;28;20558;-78
2020/12/11 13:20:54;;;;;;;28.30;23.90;;;4.60;99.90;;;;;;4993951;28;20577;-82
2020/12/11 13:26:23;;;;;;;24.90;20.70;;;4.60;99.90;;;;;;4995195;28;20451;-79
2020/12/11 13:28:50;;;;;;;24.23;21.57;;;4.70;99.90;;;;;;4994940;28;20451;-81
2020/12/11 13:31:16;;;;;;;24.13;20.10;;;4.60;99.90;;;;;;4993631;28;20955;-81
2020/12/11 13:33:43;;;;;;;28.57;22.17;;;4.60;99.90;;;;;;4993208;28;20470;-79
2020/12/11 13:36:09;;;;;;;31.10;24.20;;;4.60;99.90;;;;;;4993057;28;20439;-78
2020/12/11 13:38:35;;;;;;;27.17;24.27;;;4.60;99.90;;;;;;4993026;28;20438;-79
2020/12/11 13:41:02;;;;;;;24.07;21.47;;;4.70;99.90;;;;;;4992888;28;20483;-79
2020/12/11 13:43:29;;;;;;;26.33;22.47;;;4.70;99.90;;;;;;4992921;28;20521;-78
2020/12/11 13:45:55;;;;;;;24.00;20.57;;;4.60;99.90;;;;;;4992582;28;20443;-79
2020/12/11 13:48:21;;;;;;;23.30;20.70;;;4.70;99.90;;;;;;4992958;28;20439;-79
2020/12/11 13:50:47;;;;;;;28.63;23.13;;;4.60;99.90;;;;;;4993047;28;20446;-79
2020/12/11 13:53:13;;;;;;;24.80;22.20;;;4.60;99.90;;;;;;4992689;28;20447;-80
2020/12/11 13:55:40;;;;;;;25.23;22.77;;;4.60;99.90;;;;;;4992595;28;20454;-80
2020/12/11 13:58:12;;;;;;;26.80;24.10;;;4.70;99.90;;;;;;4992875;28;21019;-80
2020/12/11 14:00:38;;;;;;;31.57;26.53;;;4.70;99.90;;;;;;4992651;28;20490;-80
2020/12/11 14:03:07;;;;;;;26.60;21.97;;;4.70;99.90;;;;;;4992467;28;20479;-79
2020/12/11 14:05:33;;;;;;;26.63;22.57;;;4.80;99.90;;;;;;4992479;28;20450;-79
2020/12/11 14:08:00;;;;;;;28.67;22.97;;;4.80;99.90;;;;;;4992425;28;20453;-79
2020/12/11 14:10:26;;;;;;;24.83;21.50;;;4.80;99.90;;;;;;4992437;28;20458;-78
2020/12/11 14:12:52;;;;;;;26.40;23.47;;;4.80;99.90;;;;;;4992601;28;20451;-78
2020/12/11 14:15:19;;;;;;;30.30;24.50;;;4.90;99.90;;;;;;4992478;28;20897;-78
2020/12/11 14:18:04;;;;;;;26.63;23.83;;;4.90;99.90;;;;;;4992323;28;20446;-78
2020/12/11 14:20:36;;;;;;;29.07;24.40;;;5.00;99.90;;;;;;4992455;28;20577;-78
2020/12/11 14:23:06;;;;;;;27.70;23.93;;;5.00;99.90;;;;;;4992440;28;20451;-79
2020/12/11 14:25:32;;;;;;;27.10;24.20;;;5.10;99.90;;;;;;4992391;28;20948;-78
2020/12/11 14:27:59;;;;;;;25.67;22.90;;;5.00;99.90;;;;;;4992309;28;20450;-79
2020/12/11 14:30:26;;;;;;;26.13;23.37;;;5.10;99.90;;;;;;4992072;28;20439;-78
2020/12/11 14:32:52;;;;;;;27.33;23.97;;;5.20;99.90;;;;;;4992119;28;20466;-78
2020/12/11 14:35:19;;;;;;;29.60;24.87;;;5.20;99.90;;;;;;4992115;28;20454;-78
2020/12/11 14:37:46;;;;;;;28.43;22.43;;;5.20;99.90;;;;;;4991847;28;20454;-78
2020/12/11 14:40:14;;;;;;;24.77;21.50;;;5.10;99.90;;;;;;4991982;28;20489;-78
2020/12/11 14:42:40;;;;;;;25.20;22.67;;;5.10;99.90;;;;;;4991809;28;20975;-77
2020/12/11 14:45:07;;;;;;;32.53;23.80;;;5.20;99.90;;;;;;4991834;28;20447;-80
2020/12/11 14:47:34;;;;;;;26.33;22.67;;;5.30;99.90;;;;;;4991868;28;20466;-77
2020/12/11 14:50:00;;;;;;;22.57;20.27;;;5.30;99.90;;;;;;4992032;28;20453;-80
2020/12/11 14:52:27;;;;;;;27.07;23.20;;;5.20;99.90;;;;;;4991810;28;20454;-80
2020/12/11 14:54:53;;;;;;;22.93;20.50;;;5.10;99.90;;;;;;4991796;28;20929;-80
2020/12/11 14:57:20;;;;;;;23.97;21.33;;;5.10;99.90;;;;;;4991834;28;20449;-80
2020/12/11 14:59:46;;;;;;;23.20;21.00;;;5.10;99.90;;;;;;4991234;28;20466;-80
2020/12/11 15:02:14;;;;;;;25.83;22.10;;;5.00;99.90;;;;;;4991130;28;20498;-79
2020/12/11 15:04:41;;;;;;;28.17;22.30;;;5.00;99.90;;;;;;4991663;28;20447;-79
2020/12/11 15:07:08;;;;;;;24.37;21.77;;;5.10;99.90;;;;;;4991277;28;20449;-80
2020/12/11 15:09:34;;;;;;;25.03;21.70;;;5.00;99.90;;;;;;4991595;28;20956;-80
2020/12/11 15:12:00;;;;;;;23.67;21.37;;;5.10;99.90;;;;;;4991550;28;20445;-79
2020/12/11 15:14:26;;;;;;;23.20;20.30;;;5.10;99.90;;;;;;4991356;28;20447;-79
2020/12/11 15:17:01;;;;;;;20.97;18.63;;;5.10;99.90;;;;;;4988959;28;20590;-80
2020/12/11 15:19:28;;;;;;;21.87;19.67;;;5.10;99.90;;;;;;4991514;28;20442;-79
2020/12/11 15:21:55;;;;;;;23.33;20.90;;;5.10;99.90;;;;;;4991164;28;20478;-78
2020/12/11 15:24:21;;;;;;;27.00;23.37;;;5.00;99.90;;;;;;4991459;28;20450;-78
2020/12/11 15:26:47;;;;;;;24.43;21.97;;;5.10;99.90;;;;;;4991456;28;20554;-76
2020/12/11 15:29:13;;;;;;;32.97;29.83;;;5.00;99.90;;;;;;4991304;28;20812;-76
2020/12/11 15:31:39;;;;;;;27.20;24.90;;;4.90;99.90;;;;;;4991330;28;20493;-74
2020/12/11 15:34:06;;;;;;;31.60;28.47;;;4.90;99.90;;;;;;4991184;28;20450;-75
2020/12/11 15:36:32;;;;;;;32.07;29.23;;;4.70;99.90;;;;;;4990985;28;20458;-76
2020/12/11 15:38:59;;;;;;;32.67;30.20;;;4.60;99.90;;;;;;4990913;28;20439;-75
2020/12/11 15:41:25;;;;;;;38.10;34.93;;;4.60;99.90;;;;;;4990987;28;20902;-75
2020/12/11 15:43:51;;;;;;;37.00;33.60;;;4.60;99.90;;;;;;4991168;28;20454;-75
2020/12/11 15:46:19;;;;;;;34.90;32.33;;;4.60;99.90;;;;;;4991289;28;20944;-75
2020/12/11 15:48:45;;;;;;;34.93;32.30;;;4.60;99.90;;;;;;4991029;28;20939;-76
2020/12/11 15:51:12;;;;;;;30.77;28.67;;;4.60;99.90;;;;;;4990993;28;20435;-75
2020/12/11 15:53:38;;;;;;;29.23;27.20;;;4.60;99.90;;;;;;4991025;28;20462;-76
2020/12/11 15:56:09;;;;;;;31.07;28.83;;;4.60;99.90;;;;;;4991148;28;20856;-76
2020/12/11 15:58:35;;;;;;;32.20;29.70;;;4.60;99.90;;;;;;4991441;28;20542;-76
2020/12/11 16:01:02;;;;;;;33.43;30.97;;;4.60;99.90;;;;;;4990918;28;20490;-76
2020/12/11 16:03:28;;;;;;;34.83;31.97;;;4.60;99.90;;;;;;4990709;28;20474;-77
2020/12/11 16:05:54;;;;;;;28.10;26.20;;;4.60;99.90;;;;;;4991127;28;20465;-78
2020/12/11 16:08:20;;;;;;;28.50;26.43;;;4.60;99.90;;;;;;4991155;28;20815;-79
2020/12/11 16:10:46;;;;;;;30.67;27.97;;;4.50;99.90;;;;;;4991021;28;20439;-79
2020/12/11 16:13:13;;;;;;;30.90;28.47;;;4.50;99.90;;;;;;4990795;28;20447;-79
2020/12/11 16:15:39;;;;;;;27.40;25.50;;;4.50;99.90;;;;;;4990787;28;20462;-78
2020/12/11 16:18:06;;;;;;;27.37;25.30;;;4.60;99.90;;;;;;4991510;28;20446;-78
2020/12/11 16:20:32;;;;;;;28.00;25.70;;;4.70;99.90;;;;;;4994491;28;20532;-78
2020/12/11 16:22:58;;;;;;;25.90;23.90;;;4.70;99.90;;;;;;4994573;28;20443;-77
2020/12/11 16:25:24;;;;;;;27.37;25.37;;;4.70;99.90;;;;;;4994266;28;20447;-76
2020/12/11 16:27:50;;;;;;;27.43;25.40;;;4.70;99.90;;;;;;4994595;28;20821;-77
2020/12/11 16:30:17;;;;;;;28.13;26.23;;;4.70;99.90;;;;;;4994470;28;20480;-76
2020/12/11 16:32:44;;;;;;;28.93;26.90;;;4.70;99.90;;;;;;4994330;28;20450;-76
2020/12/11 16:35:10;;;;;;;30.93;28.80;;;4.60;99.90;;;;;;4994372;28;20447;-76
2020/12/11 16:37:36;;;;;;;30.30;28.10;;;4.60;99.90;;;;;;4994510;28;20453;-75
2020/12/11 16:40:04;;;;;;;28.80;26.80;;;4.60;99.90;;;;;;4994405;28;20847;-77
2020/12/11 16:42:30;;;;;;;26.87;24.63;;;4.60;99.90;;;;;;4994073;28;20796;-76
2020/12/11 16:45:03;;;;;;;30.87;28.37;;;4.60;99.90;;;;;;4994131;28;20442;-77
2020/12/11 16:47:33;;;;;;;30.23;27.83;;;4.60;99.90;;;;;;4994080;28;20475;-77
2020/12/11 16:49:59;;;;;;;30.50;28.13;;;4.60;99.90;;;;;;4994294;28;20450;-77
2020/12/11 16:52:26;;;;;;;29.20;27.20;;;4.50;99.90;;;;;;4993895;28;20453;-76
2020/12/11 16:54:52;;;;;;;30.10;27.77;;;4.50;99.90;;;;;;4994179;28;20853;-77
2020/12/11 16:57:23;;;;;;;27.10;25.47;;;4.50;99.90;;;;;;4994462;28;20806;-76
2020/12/11 16:59:52;;;;;;;27.43;25.40;;;4.50;99.90;;;;;;4993844;28;20454;-76
2020/12/11 17:02:25;;;;;;;28.20;26.30;;;4.50;99.90;;;;;;4993502;28;20477;-76
2020/12/11 17:07:58;;;;;;;28.17;26.20;;;4.50;99.90;;;;;;4993654;28;20948;-76
2020/12/11 17:10:27;;;;;;;28.47;26.13;;;4.40;99.90;;;;;;4993783;28;21016;-76
2020/12/11 17:12:53;;;;;;;25.17;23.37;;;4.40;99.90;;;;;;4993633;28;20447;-75
2020/12/11 17:15:19;;;;;;;28.50;26.17;;;4.40;99.90;;;;;;4993659;28;20438;-73
2020/12/11 17:17:45;;;;;;;25.87;24.13;;;4.40;99.90;;;;;;4993547;28;20443;-73
2020/12/11 17:20:12;;;;;;;27.13;25.03;;;4.40;99.90;;;;;;4993287;28;20478;-74
2020/12/11 17:22:39;;;;;;;27.13;24.87;;;4.50;99.90;;;;;;4993372;28;20535;-75
2020/12/11 17:25:06;;;;;;;24.67;22.87;;;4.50;99.90;;;;;;4993480;28;20451;-75
2020/12/11 17:27:33;;;;;;;26.50;24.50;;;4.60;99.90;;;;;;4993323;28;20454;-74
2020/12/11 17:30:05;;;;;;;26.87;24.77;;;4.60;99.90;;;;;;4992796;28;20447;-75
2020/12/11 17:32:46;;;;;;;25.53;23.60;;;4.60;99.90;;;;;;4993446;28;20455;-75
2020/12/11 17:35:13;;;;;;;23.97;22.30;;;4.70;99.90;;;;;;4993207;28;20439;-74
2020/12/11 17:37:39;;;;;;;23.13;21.23;;;4.80;99.90;;;;;;4993066;28;20450;-74
2020/12/11 17:40:06;;;;;;;21.13;19.33;;;4.90;99.90;;;;;;4993078;28;21011;-75
2020/12/11 17:42:33;;;;;;;22.77;20.57;;;4.90;99.90;;;;;;4993065;28;20446;-75
2020/12/11 17:44:59;;;;;;;21.90;20.10;;;4.90;99.90;;;;;;4992850;28;20442;-76
2020/12/11 17:47:25;;;;;;;18.57;17.17;;;4.90;99.90;;;;;;4992908;28;20469;-77
2020/12/11 17:49:51;;;;;;;20.67;18.80;;;5.00;99.90;;;;;;4992959;28;20489;-75
2020/12/11 17:52:18;;;;;;;22.00;20.20;;;5.00;99.90;;;;;;4993180;28;20439;-75
2020/12/11 17:54:45;;;;;;;19.10;17.40;;;5.10;99.90;;;;;;4992992;28;20451;-77